Time;durP1;ratioP1;P1;durP2;ratioP2;P2;SDS_P1;SDS_P2;PMS_P1;PMS_P2;Temp;Humidity;BMP_temperature;BMP_pressure;BME280_temperature;BME280_humidity;BME280_pressure;Samples;Min_cycle;Max_cycle;Signal;HPM_P1;HPM_P2
2021/04/21 00:01:47;;;;;;;8.30;5.57;;;;;14.70;101529.00;;;;5088843;28;20215;-82
2021/04/21 00:04:16;;;;;;;8.50;6.07;;;;;14.60;101523.00;;;;5088714;28;20273;-82
2021/04/21 00:06:44;;;;;;;9.15;6.13;;;;;14.60;101526.00;;;;5089771;28;20204;-82
2021/04/21 00:09:14;;;;;;;9.20;6.35;;;;;14.60;101526.00;;;;5088694;28;20689;-82
2021/04/21 00:11:42;;;;;;;8.88;6.22;;;;;14.60;101531.00;;;;5089869;28;20202;-81
2021/04/21 00:14:10;;;;;;;8.80;6.00;;;;;14.50;101532.00;;;;5078846;28;20653;-82
2021/04/21 00:16:38;;;;;;;10.07;6.57;;;;;14.50;101528.00;;;;5084579;28;20194;-82
2021/04/21 00:19:05;;;;;;;10.10;6.90;;;;;14.50;101528.00;;;;5088964;28;20685;-82
2021/04/21 00:21:34;;;;;;;9.68;7.25;;;;;14.40;101529.00;;;;5088985;28;20226;-81
2021/04/21 00:24:03;;;;;;;9.38;7.22;;;;;14.40;101535.00;;;;5087305;28;20691;-82
2021/04/21 00:26:30;;;;;;;8.48;6.43;;;;;14.40;101529.00;;;;5085035;28;20246;-81
2021/04/21 00:28:57;;;;;;;10.98;7.15;;;;;14.40;101526.00;;;;5069323;28;20191;-82
2021/04/21 00:31:25;;;;;;;8.68;6.60;;;;;14.40;101534.00;;;;5069615;28;20225;-82
2021/04/21 00:33:57;;;;;;;9.80;7.03;;;;;14.30;101536.00;;;;5076901;28;20370;-82
2021/04/21 00:36:25;;;;;;;10.50;7.25;;;;;14.30;101529.00;;;;5087799;28;20198;-82
2021/04/21 00:38:53;;;;;;;9.90;6.80;;;;;14.30;101534.00;;;;5088260;28;20643;-82
2021/04/21 00:41:33;;;;;;;8.60;6.47;;;;;14.20;101532.00;;;;5069339;28;20223;-81
2021/04/21 00:44:08;;;;;;;9.27;7.03;;;;;14.20;101530.00;;;;5087759;28;20206;-82
2021/04/21 00:46:39;;;;;;;9.63;7.07;;;;;14.20;101531.00;;;;5088928;28;20197;-82
2021/04/21 00:49:11;;;;;;;11.85;7.25;;;;;14.10;101527.00;;;;5068894;28;20217;-82
2021/04/21 00:51:47;;;;;;;13.25;7.25;;;;;14.10;101530.00;;;;5068367;28;20223;-82
2021/04/21 00:54:19;;;;;;;9.02;6.75;;;;;14.10;101529.00;;;;5074882;28;20203;-82
2021/04/21 00:57:04;;;;;;;10.30;6.80;;;;;14.00;101534.00;;;;5069778;28;20194;-82
2021/04/21 00:59:44;;;;;;;12.88;7.10;;;;;14.00;101533.00;;;;5080373;28;20239;-82
2021/04/21 01:02:14;;;;;;;9.23;6.32;;;;;14.00;101521.00;;;;5076973;28;20261;-82
2021/04/21 01:04:43;;;;;;;9.32;6.47;;;;;14.00;101525.00;;;;5087921;28;20719;-82
2021/04/21 01:07:12;;;;;;;11.60;7.47;;;;;14.00;101522.00;;;;5088568;28;20205;-82
2021/04/21 01:09:40;;;;;;;10.95;7.00;;;;;13.90;101526.00;;;;5088298;28;20190;-80
2021/04/21 01:12:12;;;;;;;11.55;6.40;;;;;13.90;101518.00;;;;5088629;28;20255;-82
2021/04/21 01:14:42;;;;;;;11.07;7.38;;;;;13.90;101520.00;;;;5088681;28;20237;-82
2021/04/21 01:17:12;;;;;;;9.98;7.10;;;;;13.90;101519.00;;;;5086464;28;20198;-81
2021/04/21 01:20:06;;;;;;;10.63;6.82;;;;;13.80;101517.00;;;;5088874;28;20198;-82
2021/04/21 01:22:48;;;;;;;9.77;6.40;;;;;13.70;101526.00;;;;5069850;28;20216;-82
2021/04/21 01:25:23;;;;;;;7.95;6.13;;;;;13.70;101517.00;;;;5087085;28;20602;-82
2021/04/21 01:27:59;;;;;;;10.93;6.78;;;;;13.70;101518.00;;;;5088277;28;20207;-82
2021/04/21 01:30:28;;;;;;;11.55;6.82;;;;;13.70;101521.00;;;;5088948;28;20202;-82
2021/04/21 01:32:58;;;;;;;10.82;7.30;;;;;13.70;101524.00;;;;5087660;28;20182;-82
2021/04/21 01:35:26;;;;;;;10.90;7.45;;;;;13.60;101523.00;;;;5086872;28;20244;-82
2021/04/21 01:37:57;;;;;;;10.60;7.47;;;;;13.60;101516.00;;;;5085564;28;20190;-81
2021/04/21 01:40:27;;;;;;;10.20;7.50;;;;;13.60;101513.00;;;;5085530;28;20295;-81
2021/04/21 01:42:58;;;;;;;9.93;7.43;;;;;13.50;101519.00;;;;5084344;28;20221;-82
2021/04/21 01:45:30;;;;;;;10.90;7.22;;;;;13.50;101510.00;;;;5084470;28;20571;-81
2021/04/21 01:48:00;;;;;;;10.45;7.15;;;;;13.50;101513.00;;;;5086297;28;20198;-82
2021/04/21 01:50:27;;;;;;;11.90;7.78;;;;;13.50;101514.00;;;;5087648;28;20234;-82
2021/04/21 01:53:04;;;;;;;11.15;7.45;;;;;13.40;101514.00;;;;5086201;28;20194;-81
2021/04/21 01:55:54;;;;;;;11.10;7.85;;;;;13.40;101506.00;;;;5075151;28;20186;-82
2021/04/21 01:58:33;;;;;;;9.93;6.78;;;;;13.30;101506.00;;;;5077822;28;20191;-82
2021/04/21 02:01:04;;;;;;;11.90;8.18;;;;;13.40;101508.00;;;;5071059;28;20226;-82
2021/04/21 02:47:32;;;;;;;11.90;8.35;;;;;12.80;101517.00;;;;5090315;28;20705;-81
2021/04/21 02:50:06;;;;;;;14.07;9.35;;;;;12.80;101522.00;;;;5075742;28;20789;-82
2021/04/21 02:52:48;;;;;;;13.30;9.18;;;;;12.80;101527.00;;;;5086034;28;20189;-82
2021/04/21 02:55:26;;;;;;;12.32;9.02;;;;;12.70;101518.00;;;;5090972;28;20277;-81
2021/04/21 02:58:01;;;;;;;12.88;8.82;;;;;12.70;101521.00;;;;5090594;28;20629;-82
2021/04/21 03:00:30;;;;;;;13.82;9.68;;;;;12.80;101528.00;;;;5087670;28;20241;-82
2021/04/21 03:03:14;;;;;;;15.60;10.25;;;;;12.70;101523.00;;;;5090693;28;20194;-82
2021/04/21 03:05:47;;;;;;;14.70;9.95;;;;;12.70;101528.00;;;;5070949;28;20198;-82
2021/04/21 03:08:24;;;;;;;17.00;9.80;;;;;12.70;101524.00;;;;5080910;28;20198;-82
2021/04/21 03:34:33;;;;;;;14.50;8.80;;;;;12.40;101520.00;;;;5079701;28;20205;-81
2021/04/21 03:37:00;;;;;;;14.30;10.00;;;;;12.50;101520.00;;;;5090619;28;20198;-81
2021/04/21 03:39:27;;;;;;;15.50;9.75;;;;;12.50;101522.00;;;;5078633;28;20194;-82
2021/04/21 03:41:54;;;;;;;16.58;10.70;;;;;12.50;101517.00;;;;5086369;28;20218;-82
2021/04/21 03:44:22;;;;;;;13.95;10.13;;;;;12.50;101521.00;;;;5090269;28;20206;-81
2021/04/21 03:46:49;;;;;;;15.98;9.88;;;;;12.50;101519.00;;;;5090172;28;20207;-81
2021/04/21 03:49:16;;;;;;;14.90;9.70;;;;;12.50;101519.00;;;;5080627;28;20568;-81
2021/04/21 03:51:44;;;;;;;16.50;11.00;;;;;12.40;101528.00;;;;5088443;28;20222;-81
2021/04/21 03:54:12;;;;;;;15.50;10.55;;;;;12.40;101520.00;;;;5085580;28;20221;-82
2021/04/21 03:56:43;;;;;;;17.08;10.30;;;;;12.40;101520.00;;;;5075639;28;20531;-82
2021/04/21 03:59:14;;;;;;;17.23;10.02;;;;;12.40;101521.00;;;;5082809;28;20199;-82
2021/04/21 04:01:42;;;;;;;14.40;10.27;;;;;12.40;101513.00;;;;5072993;28;20493;-82
2021/04/21 04:04:11;;;;;;;17.83;10.52;;;;;12.40;101508.00;;;;5088862;28;20210;-82
2021/04/21 04:06:42;;;;;;;16.33;10.60;;;;;12.40;101511.00;;;;5081752;28;20202;-82
2021/04/21 04:09:11;;;;;;;15.52;9.63;;;;;12.40;101513.00;;;;5088849;28;20251;-82
2021/04/21 04:11:41;;;;;;;16.67;11.48;;;;;12.40;101507.00;;;;5090197;28;20640;-82
2021/04/21 04:14:18;;;;;;;18.15;10.68;;;;;12.30;101505.00;;;;5088551;28;20292;-82
2021/04/21 04:16:46;;;;;;;15.13;9.73;;;;;12.30;101509.00;;;;5089049;28;20648;-81
2021/04/21 04:19:14;;;;;;;18.92;11.93;;;;;12.30;101506.00;;;;5088027;28;20198;-82
2021/04/21 04:21:43;;;;;;;16.05;9.98;;;;;12.30;101509.00;;;;5068821;28;20222;-82
2021/04/21 04:24:14;;;;;;;16.95;10.90;;;;;12.30;101503.00;;;;5080452;28;20251;-82
2021/04/21 04:26:43;;;;;;;17.75;9.85;;;;;12.30;101510.00;;;;5088515;28;20419;-82
2021/04/21 04:29:10;;;;;;;14.90;10.05;;;;;12.30;101510.00;;;;5071504;28;20195;-81
2021/04/21 04:31:38;;;;;;;15.43;10.10;;;;;12.30;101510.00;;;;5081509;28;20194;-81
2021/04/21 04:34:07;;;;;;;15.30;10.00;;;;;12.30;101508.00;;;;5088266;28;20206;-81
2021/04/21 04:36:35;;;;;;;16.30;11.20;;;;;12.30;101515.00;;;;5089324;28;20190;-82
2021/04/21 04:39:03;;;;;;;17.13;11.40;;;;;12.30;101521.00;;;;5088241;28;20203;-81
2021/04/21 04:41:32;;;;;;;16.77;11.68;;;;;12.30;101521.00;;;;5088903;28;20226;-81
2021/04/21 04:44:01;;;;;;;16.08;10.68;;;;;12.30;101520.00;;;;5088944;28;20198;-81
2021/04/21 04:46:30;;;;;;;17.00;11.27;;;;;12.30;101525.00;;;;5089153;28;20202;-82
2021/04/21 04:49:01;;;;;;;16.50;10.73;;;;;12.30;101525.00;;;;5086359;28;20194;-81
2021/04/21 04:51:32;;;;;;;17.92;10.93;;;;;12.30;101532.00;;;;5077048;28;20229;-81
2021/04/21 04:54:02;;;;;;;17.52;11.25;;;;;12.30;101535.00;;;;5073873;28;20676;-81
2021/04/21 04:56:30;;;;;;;16.05;11.25;;;;;12.30;101533.00;;;;5073999;28;20190;-82
2021/04/21 04:59:00;;;;;;;15.52;11.40;;;;;12.30;101536.00;;;;5087394;28;20347;-82
2021/04/21 05:01:27;;;;;;;14.88;10.02;;;;;12.30;101534.00;;;;5081887;28;20238;-81
2021/04/21 05:03:56;;;;;;;14.00;9.55;;;;;12.30;101534.00;;;;5083085;28;20198;-82
2021/04/21 05:06:30;;;;;;;18.58;11.18;;;;;12.30;101543.00;;;;5069751;28;20765;-82
2021/04/21 05:09:03;;;;;;;17.55;10.70;;;;;12.30;101542.00;;;;5068498;28;20199;-82
2021/04/21 05:11:33;;;;;;;16.65;11.35;;;;;12.40;101549.00;;;;5075204;28;20563;-81
2021/04/21 05:14:05;;;;;;;18.08;11.75;;;;;12.40;101550.00;;;;5078142;28;20203;-82
2021/04/21 05:17:05;;;;;;;16.50;11.80;;;;;12.40;101554.00;;;;5072413;28;20232;-82
2021/04/21 05:20:12;;;;;;;13.15;10.10;;;;;12.40;101560.00;;;;5069813;28;20206;-82
2021/04/21 05:23:17;;;;;;;14.68;9.77;;;;;12.40;101557.00;;;;5072472;28;20221;-82
2021/04/21 05:26:24;;;;;;;16.63;10.90;;;;;12.50;101559.00;;;;5073093;28;20194;-81
2021/04/21 05:29:39;;;;;;;14.77;9.95;;;;;12.50;101560.00;;;;5067618;28;20191;-80
2021/04/21 05:32:44;;;;;;;13.57;9.65;;;;;12.60;101558.00;;;;5067176;28;20254;-80
2021/04/21 05:35:54;;;;;;;15.05;10.32;;;;;12.60;101565.00;;;;5075103;28;20191;-80
2021/04/21 05:39:07;;;;;;;14.02;10.15;;;;;12.70;101557.00;;;;5036836;28;20196;-79
2021/04/21 05:42:19;;;;;;;14.25;9.63;;;;;12.80;101560.00;;;;5077489;28;20230;-80
2021/04/21 05:45:34;;;;;;;13.77;10.10;;;;;12.90;101567.00;;;;5063121;28;20190;-80
2021/04/21 05:48:30;;;;;;;14.45;9.93;;;;;12.90;101565.00;;;;5081417;28;20201;-79
2021/04/21 05:51:33;;;;;;;16.05;9.95;;;;;13.00;101570.00;;;;5081490;28;20245;-80
2021/04/21 05:54:35;;;;;;;16.45;10.23;;;;;13.10;101565.00;;;;5081448;28;20293;-79
2021/04/21 05:57:47;;;;;;;14.43;9.43;;;;;13.20;101564.00;;;;5081135;28;20206;-78
2021/04/21 06:01:02;;;;;;;12.70;9.38;;;;;13.30;101574.00;;;;5035900;28;20210;-79
2021/04/21 06:03:29;;;;;;;14.80;10.32;;;;;13.50;101575.00;;;;5083629;28;20189;-80
2021/04/21 06:06:02;;;;;;;18.10;12.02;;;;;13.50;101577.00;;;;5082633;28;20203;-80
2021/04/21 06:08:30;;;;;;;14.25;10.48;;;;;13.60;101578.00;;;;5087299;28;20202;-79
2021/04/21 06:10:57;;;;;;;13.55;10.38;;;;;13.60;101585.00;;;;5086071;28;20209;-79
2021/04/21 06:13:28;;;;;;;13.80;9.75;;;;;13.60;101583.00;;;;5067225;28;20728;-79
2021/04/21 06:15:56;;;;;;;15.27;10.18;;;;;13.70;101584.00;;;;5085766;28;20202;-79
2021/04/21 06:18:23;;;;;;;12.98;10.15;;;;;13.80;101591.00;;;;5087874;28;20206;-80
2021/04/21 06:20:51;;;;;;;15.15;10.80;;;;;13.80;101582.00;;;;5087688;28;20226;-79
2021/04/21 06:23:20;;;;;;;15.20;11.23;;;;;13.90;101592.00;;;;5086753;28;20203;-79
2021/04/21 06:25:48;;;;;;;20.33;11.95;;;;;14.00;101588.00;;;;5068075;28;20194;-79
2021/04/21 06:28:17;;;;;;;15.02;11.75;;;;;14.00;101599.00;;;;5067708;28;20195;-79
2021/04/21 06:30:45;;;;;;;16.38;10.63;;;;;14.10;101600.00;;;;5069207;28;20202;-79
2021/04/21 06:33:14;;;;;;;18.48;11.60;;;;;14.20;101588.00;;;;5086812;28;20675;-79
2021/04/21 06:35:42;;;;;;;13.18;10.27;;;;;14.30;101592.00;;;;5085705;28;20202;-80
2021/04/21 06:38:10;;;;;;;18.75;12.45;;;;;14.40;101595.00;;;;5085389;28;20205;-79
2021/04/21 06:40:39;;;;;;;16.52;11.80;;;;;14.40;101600.00;;;;5072744;28;20257;-80
2021/04/21 06:43:06;;;;;;;14.18;10.50;;;;;14.50;101604.00;;;;5082213;28;20259;-80
2021/04/21 06:45:36;;;;;;;15.60;10.70;;;;;14.60;101605.00;;;;5089080;28;20210;-79
2021/04/21 06:48:04;;;;;;;16.50;11.52;;;;;14.70;101606.00;;;;5089612;28;20203;-80
2021/04/21 06:50:33;;;;;;;16.05;11.20;;;;;14.80;101602.00;;;;5089630;28;20676;-79
2021/04/21 06:53:02;;;;;;;14.45;10.88;;;;;14.90;101619.00;;;;5077809;28;20207;-79
2021/04/21 06:55:30;;;;;;;15.63;11.85;;;;;15.00;101620.00;;;;5072146;28;20198;-80
2021/04/21 06:57:57;;;;;;;21.08;12.18;;;;;15.10;101615.00;;;;5089016;28;20209;-80
2021/04/21 07:00:26;;;;;;;14.77;10.75;;;;;15.20;101623.00;;;;5076176;28;20244;-80
2021/04/21 07:02:56;;;;;;;16.95;11.75;;;;;15.30;101623.00;;;;5069793;28;20242;-80
2021/04/21 07:05:34;;;;;;;16.38;10.60;;;;;15.30;101622.00;;;;5077417;28;20191;-81
2021/04/21 07:08:06;;;;;;;15.75;11.45;;;;;15.40;101617.00;;;;5070770;28;20199;-80
2021/04/21 07:10:35;;;;;;;16.70;11.75;;;;;15.50;101625.00;;;;5081504;28;20209;-81
2021/04/21 07:13:03;;;;;;;15.43;11.88;;;;;15.60;101629.00;;;;5088296;28;20605;-80
2021/04/21 07:15:30;;;;;;;13.88;11.00;;;;;15.70;101627.00;;;;5087947;28;20195;-80
2021/04/21 07:17:57;;;;;;;15.57;11.30;;;;;15.70;101625.00;;;;5088474;28;20649;-81
2021/04/21 07:20:25;;;;;;;13.45;9.80;;;;;15.80;101633.00;;;;5090881;28;20191;-82
2021/04/21 07:22:53;;;;;;;15.68;10.52;;;;;15.90;101628.00;;;;5089088;28;20224;-82
2021/04/21 07:25:21;;;;;;;14.43;10.65;;;;;16.00;101630.00;;;;5091397;28;20214;-82
2021/04/21 07:27:52;;;;;;;13.48;9.38;;;;;16.00;101629.00;;;;5083549;28;20202;-81
2021/04/21 07:30:27;;;;;;;11.82;8.90;;;;;16.10;101635.00;;;;5089831;28;20570;-83
2021/04/21 07:32:54;;;;;;;14.07;8.88;;;;;16.20;101630.00;;;;5084284;28;20198;-83
2021/04/21 07:35:23;;;;;;;11.18;8.27;;;;;16.30;101636.00;;;;5084703;28;20194;-81
2021/04/21 07:37:51;;;;;;;12.98;8.45;;;;;16.40;101634.00;;;;5083574;28;20194;-81
2021/04/21 07:40:27;;;;;;;11.85;8.27;;;;;16.40;101634.00;;;;5087091;28;20258;-78
2021/04/21 07:43:05;;;;;;;10.63;8.43;;;;;16.40;101632.00;;;;5088371;28;20233;-79
2021/04/21 07:45:50;;;;;;;13.50;8.38;;;;;16.50;101644.00;;;;5089954;28;20197;-78
2021/04/21 07:48:45;;;;;;;10.57;7.13;;;;;16.60;101642.00;;;;5082008;28;20195;-78
2021/04/21 07:51:45;;;;;;;11.13;8.07;;;;;16.60;101645.00;;;;5083673;28;20226;-78
2021/04/21 07:54:21;;;;;;;11.95;7.57;;;;;16.80;101655.00;;;;5082947;28;20201;-78
2021/04/21 07:56:54;;;;;;;10.57;6.28;;;;;16.80;101653.00;;;;5085644;28;20194;-80
2021/04/21 07:59:24;;;;;;;9.90;8.13;;;;;17.00;101651.00;;;;5082737;28;20210;-81
2021/04/21 08:01:52;;;;;;;9.77;7.53;;;;;17.10;101660.00;;;;5088574;28;20334;-79
2021/04/21 08:04:24;;;;;;;10.75;8.02;;;;;17.10;101666.00;;;;5089138;28;20202;-75
2021/04/21 08:06:53;;;;;;;13.10;9.07;;;;;17.30;101665.00;;;;5082404;28;20543;-75
2021/04/21 08:09:21;;;;;;;13.70;8.60;;;;;17.30;101669.00;;;;5087546;28;20681;-77
2021/04/21 08:12:08;;;;;;;13.60;9.00;;;;;17.30;101676.00;;;;5082846;28;20209;-77
2021/04/21 08:14:40;;;;;;;14.95;10.63;;;;;17.50;101682.00;;;;5083438;28;20549;-78
2021/04/21 08:17:07;;;;;;;17.13;10.60;;;;;17.60;101670.00;;;;5088770;28;20213;-76
2021/04/21 08:19:37;;;;;;;14.63;10.32;;;;;17.60;101679.00;;;;5086820;28;20218;-77
2021/04/21 08:22:04;;;;;;;16.58;10.82;;;;;17.70;101688.00;;;;5081965;28;20712;-77
2021/04/21 08:24:43;;;;;;;13.48;10.70;;;;;17.70;101679.00;;;;5088609;28;20783;-77
2021/04/21 08:27:13;;;;;;;13.07;10.07;;;;;17.80;101676.00;;;;5088243;28;20209;-77
2021/04/21 08:29:41;;;;;;;12.13;10.55;;;;;17.90;101678.00;;;;5088417;28;20202;-77
2021/04/21 08:32:09;;;;;;;14.32;10.15;;;;;18.00;101682.00;;;;5083028;28;20202;-77
2021/04/21 08:34:36;;;;;;;12.82;9.35;;;;;18.10;101679.00;;;;5089497;28;20206;-77
2021/04/21 08:37:04;;;;;;;12.02;8.77;;;;;18.20;101680.00;;;;5088720;28;21068;-77
2021/04/21 08:39:31;;;;;;;10.27;8.45;;;;;18.30;101683.00;;;;5088337;28;20194;-77
2021/04/21 08:42:00;;;;;;;11.65;8.65;;;;;18.40;101690.00;;;;5088493;28;20229;-78
2021/04/21 08:44:35;;;;;;;16.90;10.43;;;;;18.50;101691.00;;;;5088986;28;20725;-77
2021/04/21 08:47:03;;;;;;;15.30;9.93;;;;;18.50;101694.00;;;;5088906;28;20198;-77
2021/04/21 08:49:31;;;;;;;11.48;9.35;;;;;18.60;101701.00;;;;5089805;28;20281;-78
2021/04/21 08:52:00;;;;;;;13.52;9.20;;;;;18.70;101706.00;;;;5087303;28;20240;-77
2021/04/21 08:54:29;;;;;;;12.25;8.88;;;;;18.80;101706.00;;;;5078939;28;20198;-77
2021/04/21 08:56:57;;;;;;;13.73;9.45;;;;;18.90;101712.00;;;;5089026;28;20205;-77
2021/04/21 08:59:24;;;;;;;19.00;9.73;;;;;18.90;101714.00;;;;5089356;28;20202;-77
2021/04/21 09:01:52;;;;;;;13.20;9.32;;;;;19.00;101717.00;;;;5083770;28;20238;-78
2021/04/21 09:04:19;;;;;;;14.98;9.40;;;;;19.00;101709.00;;;;5071577;28;20260;-76
2021/04/21 09:06:47;;;;;;;16.27;9.35;;;;;19.00;101723.00;;;;5080551;28;20229;-77
2021/04/21 09:09:15;;;;;;;14.00;9.82;;;;;19.10;101720.00;;;;5087588;28;20205;-78
2021/04/21 09:11:42;;;;;;;13.38;9.10;;;;;19.10;101728.00;;;;5089403;28;20202;-76
2021/04/21 09:14:09;;;;;;;12.40;9.23;;;;;19.10;101740.00;;;;5085444;28;20259;-77
2021/04/21 09:16:36;;;;;;;14.15;10.10;;;;;19.10;101726.00;;;;5084648;28;20202;-76
2021/04/21 09:19:10;;;;;;;11.77;8.35;;;;;19.10;101735.00;;;;5077394;28;20213;-77
2021/04/21 09:21:38;;;;;;;14.70;9.70;;;;;19.20;101730.00;;;;5078942;28;20221;-78
2021/04/21 09:24:10;;;;;;;13.45;9.23;;;;;19.30;101735.00;;;;5078917;28;20194;-77
2021/04/21 09:26:37;;;;;;;15.77;9.95;;;;;19.30;101743.00;;;;5085625;28;20574;-78
2021/04/21 09:29:04;;;;;;;15.10;9.13;;;;;19.30;101735.00;;;;5087227;28;20261;-77
2021/04/21 09:31:33;;;;;;;11.23;7.97;;;;;19.30;101751.00;;;;5088385;28;20194;-77
2021/04/21 09:34:12;;;;;;;13.85;9.15;;;;;19.20;101754.00;;;;5081888;28;20213;-78
2021/04/21 09:36:39;;;;;;;12.20;8.27;;;;;19.30;101755.00;;;;5086783;28;20618;-77
2021/04/21 09:39:15;;;;;;;13.38;8.40;;;;;19.10;101751.00;;;;5087900;28;20202;-78
2021/04/21 09:41:42;;;;;;;10.48;7.18;;;;;19.10;101751.00;;;;5072963;28;20225;-78
2021/04/21 09:44:18;;;;;;;17.15;8.68;;;;;19.00;101753.00;;;;5082160;28;20198;-78
2021/04/21 09:46:46;;;;;;;11.00;7.75;;;;;19.00;101757.00;;;;5086779;28;20238;-77
2021/04/21 09:49:30;;;;;;;12.63;8.23;;;;;18.90;101762.00;;;;5081208;28;20242;-78
2021/04/21 09:51:59;;;;;;;10.48;7.55;;;;;19.00;101747.00;;;;5078155;28;20217;-78
2021/04/21 09:54:33;;;;;;;13.05;8.70;;;;;19.00;101756.00;;;;5077208;28;20225;-78
2021/04/21 09:57:07;;;;;;;10.23;6.88;;;;;19.00;101763.00;;;;5067588;28;20571;-78
2021/04/21 09:59:34;;;;;;;10.88;8.02;;;;;19.10;101765.00;;;;5067763;28;20213;-78
2021/04/21 10:02:01;;;;;;;9.63;6.30;;;;;19.20;101763.00;;;;5067508;28;20227;-78
2021/04/21 10:04:29;;;;;;;11.13;7.60;;;;;19.30;101761.00;;;;5077925;28;20195;-78
2021/04/21 10:06:57;;;;;;;10.52;7.53;;;;;19.30;101759.00;;;;5088475;28;20202;-79
2021/04/21 10:09:32;;;;;;;10.38;7.70;;;;;19.40;101766.00;;;;5081863;28;20194;-78
2021/04/21 10:12:20;;;;;;;13.55;8.38;;;;;19.40;101757.00;;;;5087745;28;20579;-78
2021/04/21 10:14:48;;;;;;;12.23;7.25;;;;;19.60;101755.00;;;;5086520;28;20238;-78
2021/04/21 10:17:15;;;;;;;11.57;7.95;;;;;19.60;101758.00;;;;5078473;28;20198;-78
2021/04/21 10:19:44;;;;;;;12.25;8.13;;;;;19.80;101748.00;;;;5086842;28;20201;-78
2021/04/21 10:22:12;;;;;;;16.23;7.97;;;;;19.90;101755.00;;;;5084557;28;20222;-77
2021/04/21 10:24:40;;;;;;;10.40;7.93;;;;;20.10;101765.00;;;;5088057;28;20520;-77
2021/04/21 10:27:07;;;;;;;12.77;8.98;;;;;20.20;101765.00;;;;5078598;28;20206;-77
2021/04/21 10:29:37;;;;;;;9.52;6.70;;;;;20.40;101776.00;;;;5087397;28;20289;-77
2021/04/21 10:32:04;;;;;;;13.70;10.38;;;;;20.40;101765.00;;;;5073885;28;20710;-78
2021/04/21 10:34:31;;;;;;;12.48;8.50;;;;;20.50;101767.00;;;;5088923;28;20248;-77
2021/04/21 10:37:02;;;;;;;14.60;9.32;;;;;20.60;101764.00;;;;5078214;28;20202;-79
2021/04/21 10:39:31;;;;;;;13.05;9.65;;;;;20.70;101761.00;;;;5084893;28;20202;-77
2021/04/21 10:42:09;;;;;;;13.68;9.77;;;;;20.70;101769.00;;;;5080862;28;20218;-74
2021/04/21 10:44:38;;;;;;;12.25;8.95;;;;;20.90;101778.00;;;;5071670;28;20206;-75
2021/04/21 10:47:10;;;;;;;14.77;11.10;;;;;20.80;101776.00;;;;5069468;28;20742;-74
2021/04/21 10:49:41;;;;;;;13.93;8.32;;;;;20.80;101778.00;;;;5069336;28;20210;-75
2021/04/21 10:52:17;;;;;;;12.05;9.07;;;;;20.70;101776.00;;;;5068880;28;20231;-74
2021/04/21 10:54:45;;;;;;;15.40;9.50;;;;;20.80;101782.00;;;;5080847;28;20702;-75
2021/04/21 10:57:29;;;;;;;15.25;8.25;;;;;20.70;101775.00;;;;5089730;28;20240;-74
2021/04/21 11:00:08;;;;;;;12.70;8.98;;;;;20.80;101788.00;;;;5089652;28;20319;-74
2021/04/21 11:03:04;;;;;;;13.43;9.38;;;;;20.80;101778.00;;;;5090681;28;20236;-75
2021/04/21 11:05:51;;;;;;;11.95;8.77;;;;;20.90;101783.00;;;;5088769;28;20198;-75
2021/04/21 11:08:21;;;;;;;11.00;7.38;;;;;21.10;101781.00;;;;5077675;28;20191;-77
2021/04/21 11:10:52;;;;;;;10.43;7.78;;;;;21.20;101794.00;;;;5091526;28;20208;-77
2021/04/21 11:13:38;;;;;;;9.43;7.18;;;;;21.10;101804.00;;;;5088489;28;20198;-77
2021/04/21 11:16:26;;;;;;;11.02;6.47;;;;;21.20;101794.00;;;;5083114;28;20195;-77
2021/04/21 11:18:53;;;;;;;8.95;6.40;;;;;21.30;101803.00;;;;5089993;28;20293;-77
2021/04/21 11:21:21;;;;;;;7.22;5.95;;;;;21.20;101815.00;;;;5088091;28;20704;-78
2021/04/21 11:23:56;;;;;;;7.10;6.15;;;;;21.10;101806.00;;;;5071052;28;20703;-77
2021/04/21 11:26:35;;;;;;;7.60;6.10;;;;;21.00;101820.00;;;;5076085;28;20575;-76
2021/04/21 11:29:03;;;;;;;8.68;6.43;;;;;21.00;101818.00;;;;5085232;28;20202;-77
2021/04/21 11:32:07;;;;;;;11.35;6.22;;;;;20.80;101818.00;;;;5089398;28;20199;-76
2021/04/21 11:34:35;;;;;;;9.75;5.45;;;;;20.80;101829.00;;;;5090306;28;20460;-76
2021/04/21 11:37:04;;;;;;;7.78;5.40;;;;;20.70;101822.00;;;;5079334;28;20195;-77
2021/04/21 11:40:06;;;;;;;8.82;4.65;;;;;20.50;101831.00;;;;5072358;28;20195;-77
2021/04/21 11:42:51;;;;;;;5.40;4.00;;;;;20.40;101820.00;;;;5001116;28;20702;-76
2021/04/21 11:45:37;;;;;;;6.85;3.97;;;;;20.30;101816.00;;;;5074579;28;21049;-77
2021/04/21 11:48:20;;;;;;;5.70;3.75;;;;;20.20;101820.00;;;;5071515;28;20202;-77
2021/04/21 11:50:49;;;;;;;7.13;3.65;;;;;20.30;101818.00;;;;5069947;28;20230;-76
2021/04/21 11:53:17;;;;;;;5.18;3.47;;;;;20.20;101820.00;;;;5070054;28;20253;-76
2021/04/21 11:55:52;;;;;;;4.63;3.08;;;;;20.20;101823.00;;;;5070404;28;20207;-76
2021/04/21 11:58:21;;;;;;;4.63;3.20;;;;;20.30;101819.00;;;;5086602;28;20568;-76
2021/04/21 12:00:50;;;;;;;5.63;3.30;;;;;20.40;101813.00;;;;5085942;28;20225;-76
2021/04/21 12:03:19;;;;;;;7.03;4.55;;;;;20.30;101815.00;;;;5080021;28;20234;-76
2021/04/21 12:05:48;;;;;;;6.10;3.35;;;;;20.30;101816.00;;;;5075957;28;20277;-76
2021/04/21 12:08:19;;;;;;;4.50;3.40;;;;;20.40;101817.00;;;;5090359;28;20505;-77
2021/04/21 12:10:47;;;;;;;8.02;4.72;;;;;20.40;101814.00;;;;5089838;28;20205;-76
2021/04/21 12:13:20;;;;;;;5.28;4.15;;;;;20.40;101819.00;;;;5081825;28;20217;-77
2021/04/21 12:15:49;;;;;;;7.55;4.40;;;;;20.40;101821.00;;;;5081232;28;20291;-77
2021/04/21 12:18:34;;;;;;;4.97;4.30;;;;;20.30;101823.00;;;;5089271;28;20190;-76
2021/04/21 12:21:03;;;;;;;6.97;2.97;;;;;20.40;101806.00;;;;5085447;28;20190;-77
2021/04/21 12:23:32;;;;;;;5.15;2.53;;;;;20.50;101798.00;;;;5089036;28;20225;-76
2021/04/21 12:26:00;;;;;;;4.03;2.28;;;;;20.60;101811.00;;;;5071844;28;20199;-77
2021/04/21 12:28:28;;;;;;;2.92;2.38;;;;;20.60;101806.00;;;;5077437;28;20205;-77
2021/04/21 12:30:57;;;;;;;3.83;2.30;;;;;20.60;101809.00;;;;5088432;28;20574;-77
2021/04/21 12:33:25;;;;;;;3.53;2.58;;;;;20.60;101798.00;;;;5089515;28;20388;-77
2021/04/21 12:35:56;;;;;;;2.13;1.60;;;;;20.70;101797.00;;;;5088886;28;20206;-77
2021/04/21 12:38:31;;;;;;;3.38;1.95;;;;;20.70;101798.00;;;;5088605;28;20571;-77
2021/04/21 12:41:00;;;;;;;3.00;1.73;;;;;20.80;101810.00;;;;5078383;28;20638;-77
2021/04/21 12:43:30;;;;;;;8.18;2.03;;;;;20.80;101803.00;;;;5088098;28;20233;-76
2021/04/21 12:46:12;;;;;;;1.95;1.52;;;;;20.80;101813.00;;;;5088687;28;20194;-77
2021/04/21 12:48:50;;;;;;;1.75;1.58;;;;;20.90;101798.00;;;;5088875;28;20712;-77
2021/04/21 12:51:19;;;;;;;4.13;1.35;;;;;21.00;101796.00;;;;5088933;28;20275;-77
2021/04/21 12:53:46;;;;;;;3.95;1.20;;;;;21.00;101807.00;;;;5089001;28;20213;-77
2021/04/21 12:56:13;;;;;;;1.98;1.13;;;;;21.10;101802.00;;;;5087513;28;20567;-77
2021/04/21 12:58:44;;;;;;;3.65;1.55;;;;;21.10;101801.00;;;;5078156;28;20203;-77
2021/04/21 13:01:14;;;;;;;5.73;1.47;;;;;21.20;101806.00;;;;5068498;28;20332;-77
2021/04/21 13:03:56;;;;;;;4.78;1.00;;;;;21.10;101804.00;;;;5088339;28;20194;-76
2021/04/21 13:06:37;;;;;;;3.80;1.73;;;;;21.20;101808.00;;;;5080995;28;20207;-76
2021/04/21 13:09:08;;;;;;;4.45;1.30;;;;;21.30;101806.00;;;;5069430;28;20223;-76
2021/04/21 13:11:36;;;;;;;4.03;1.05;;;;;21.30;101807.00;;;;5088129;28;20221;-77
2021/04/21 13:14:05;;;;;;;4.53;1.55;;;;;21.30;101802.00;;;;5089267;28;20652;-77
2021/04/21 13:16:35;;;;;;;5.45;1.05;;;;;21.40;101796.00;;;;5088954;28;20201;-77
2021/04/21 13:19:26;;;;;;;9.40;1.65;;;;;21.40;101808.00;;;;5082480;28;20195;-78
2021/04/21 13:21:57;;;;;;;1.88;0.90;;;;;21.60;101795.00;;;;5064202;28;20360;-77
2021/04/21 13:24:24;;;;;;;1.83;1.35;;;;;21.70;101814.00;;;;5082037;28;20199;-77
2021/04/21 13:26:54;;;;;;;5.50;1.20;;;;;21.90;101811.00;;;;5072618;28;20206;-76
2021/04/21 13:29:32;;;;;;;3.05;1.10;;;;;22.00;101795.00;;;;5069454;28;20226;-76
2021/04/21 13:32:10;;;;;;;3.28;1.67;;;;;22.20;101823.00;;;;5068517;28;20191;-77
2021/04/21 13:34:37;;;;;;;3.25;1.38;;;;;22.40;101816.00;;;;5068537;28;20198;-76
2021/04/21 13:37:04;;;;;;;4.03;1.83;;;;;22.50;101814.00;;;;5068414;28;20245;-76